createdAt,value
2017-11-15T00:00:52.066Z,101253
2017-11-15T00:03:20.343Z,101253
2017-11-15T00:05:48.646Z,101249
2017-11-15T00:08:16.894Z,101244
2017-11-15T00:10:45.239Z,101253
2017-11-15T00:13:13.569Z,101249
2017-11-15T00:15:41.836Z,101257
2017-11-15T00:18:10.205Z,101258
2017-11-15T00:20:38.540Z,101251
2017-11-15T00:23:06.840Z,101257
2017-11-15T00:25:35.135Z,101263
2017-11-15T00:28:03.501Z,101266
2017-11-15T00:30:31.929Z,101271
2017-11-15T00:33:00.984Z,101266
2017-11-15T00:35:29.323Z,101281
2017-11-15T00:37:57.580Z,101273
2017-11-15T00:40:26.634Z,101276
2017-11-15T00:42:54.968Z,101279
2017-11-15T00:45:23.258Z,101278
2017-11-15T00:47:51.535Z,101281
2017-11-15T00:50:19.864Z,101277
2017-11-15T00:52:48.124Z,101279
2017-11-15T00:55:16.394Z,101277
2017-11-15T00:57:44.692Z,101281
2017-11-15T01:00:12.945Z,101284
2017-11-15T01:02:41.234Z,101268
2017-11-15T01:05:09.565Z,101279
2017-11-15T01:07:37.839Z,101287
2017-11-15T01:10:06.936Z,101283
2017-11-15T01:12:35.237Z,101286
2017-11-15T01:15:03.511Z,101285
2017-11-15T01:17:31.787Z,101286
2017-11-15T01:20:00.425Z,101284
2017-11-15T01:22:28.737Z,101281
2017-11-15T01:24:57.006Z,101282
2017-11-15T01:27:25.301Z,101271
2017-11-15T01:29:53.584Z,101274
2017-11-15T01:32:21.922Z,101281
2017-11-15T01:34:50.237Z,101285
2017-11-15T01:37:18.516Z,101281
2017-11-15T01:39:46.811Z,101281
2017-11-15T01:42:15.107Z,101277
2017-11-15T01:44:44.153Z,101282
2017-11-15T01:47:12.409Z,101285
2017-11-15T01:49:40.705Z,101284
2017-11-15T01:52:08.969Z,101278
2017-11-15T01:54:37.239Z,101279
2017-11-15T01:57:05.560Z,101287
2017-11-15T01:59:33.907Z,101285
2017-11-15T02:02:02.234Z,101294
2017-11-15T02:04:30.599Z,101288
2017-11-15T02:06:58.924Z,101296
2017-11-15T02:09:27.231Z,101302
2017-11-15T02:11:55.539Z,101295
2017-11-15T02:14:24.644Z,101298
2017-11-15T02:16:52.936Z,101296
2017-11-15T02:19:21.227Z,101285
2017-11-15T02:21:49.524Z,101291
2017-11-15T02:24:17.792Z,101282
2017-11-15T02:26:46.082Z,101279
2017-11-15T02:29:14.382Z,101287
2017-11-15T02:31:43.443Z,101295
2017-11-15T02:34:11.742Z,101288
2017-11-15T02:36:39.977Z,101297
2017-11-15T02:39:08.218Z,101283
2017-11-15T02:41:36.536Z,101289
2017-11-15T02:44:04.802Z,101301
2017-11-15T02:46:33.161Z,101293
2017-11-15T02:49:01.570Z,101297
2017-11-15T02:51:29.865Z,101299
2017-11-15T02:53:58.140Z,101297
2017-11-15T02:56:26.500Z,101308
2017-11-15T02:58:54.792Z,101302
2017-11-15T03:01:23.035Z,101303
2017-11-15T03:03:51.312Z,101307
2017-11-15T03:06:20.422Z,101306
2017-11-15T03:08:48.744Z,101309
2017-11-15T03:11:17.086Z,101297
2017-11-15T03:13:45.561Z,101302
2017-11-15T03:16:13.813Z,101304
2017-11-15T03:18:42.086Z,101303
2017-11-15T03:21:15.293Z,101306
2017-11-15T03:23:43.588Z,101304
2017-11-15T03:26:11.896Z,101306
2017-11-15T03:28:40.986Z,101306
2017-11-15T03:31:09.311Z,101312
2017-11-15T03:33:37.587Z,101306
2017-11-15T03:36:05.969Z,101305
2017-11-15T03:38:34.236Z,101318
2017-11-15T03:41:02.481Z,101308
2017-11-15T03:43:31.583Z,101313
2017-11-15T03:45:59.832Z,101317
2017-11-15T03:48:28.111Z,101315
2017-11-15T03:50:56.460Z,101311
2017-11-15T03:53:24.725Z,101316
2017-11-15T03:55:53.053Z,101313
2017-11-15T03:58:21.511Z,101306
2017-11-15T04:00:49.793Z,101314
2017-11-15T04:03:18.074Z,101316
2017-11-15T04:05:46.535Z,101315
2017-11-15T04:08:15.718Z,101307
2017-11-15T04:10:44.045Z,101316
2017-11-15T04:13:13.153Z,101315
2017-11-15T04:15:41.394Z,101312
2017-11-15T04:18:10.405Z,101313
2017-11-15T04:20:39.465Z,101318
2017-11-15T04:23:07.769Z,101323
2017-11-15T04:25:36.047Z,101320
2017-11-15T04:28:05.123Z,101326
2017-11-15T04:30:34.220Z,101325
2017-11-15T04:33:03.265Z,101325
2017-11-15T04:35:31.599Z,101323
2017-11-15T04:38:00.626Z,101324
2017-11-15T04:40:28.916Z,101325
2017-11-15T04:42:58.057Z,101328
2017-11-15T04:45:26.339Z,101333
2017-11-15T04:47:54.637Z,101330
2017-11-15T04:50:22.950Z,101331
2017-11-15T04:52:51.203Z,101339
2017-11-15T04:55:20.199Z,101343
2017-11-15T04:57:48.520Z,101335
2017-11-15T05:00:16.816Z,101343
2017-11-15T05:02:45.877Z,101349
2017-11-15T05:05:14.212Z,101364
2017-11-15T05:07:42.498Z,101362
2017-11-15T05:10:11.622Z,101358
2017-11-15T05:12:39.928Z,101361
2017-11-15T05:15:08.235Z,101368
2017-11-15T05:17:37.389Z,101369
2017-11-15T05:20:06.241Z,101362
2017-11-15T05:22:34.849Z,101378
2017-11-15T05:25:03.986Z,101374
2017-11-15T05:27:41.733Z,101373
2017-11-15T05:30:10.200Z,101385
2017-11-15T05:32:38.494Z,101378
2017-11-15T05:35:06.756Z,101379
2017-11-15T05:37:35.170Z,101378
2017-11-15T05:40:04.201Z,101381
2017-11-15T05:42:32.445Z,101398
2017-11-15T05:45:00.756Z,101392
2017-11-15T05:47:28.988Z,101395
2017-11-15T05:49:57.242Z,101399
2017-11-15T05:52:25.663Z,101415
2017-11-15T05:54:54.676Z,101394
2017-11-15T05:57:22.929Z,101404
2017-11-15T05:59:52.054Z,101412
2017-11-15T06:02:20.365Z,101408
2017-11-15T06:04:48.617Z,101407
2017-11-15T06:07:16.925Z,101405
2017-11-15T06:09:45.191Z,101411
2017-11-15T06:12:13.553Z,101421
2017-11-15T06:14:41.964Z,101424
2017-11-15T06:17:10.218Z,101429
2017-11-15T06:19:38.626Z,101437
2017-11-15T06:22:07.793Z,101439
2017-11-15T06:24:36.202Z,101434
2017-11-15T06:27:05.164Z,101431
2017-11-15T06:29:33.618Z,101437
2017-11-15T06:32:01.947Z,101434
2017-11-15T06:34:32.619Z,101434
2017-11-15T06:37:01.902Z,101439
2017-11-15T06:39:30.121Z,101434
2017-11-15T06:41:58.379Z,101439
2017-11-15T06:44:26.807Z,101442
2017-11-15T06:46:55.441Z,101443
2017-11-15T06:49:28.243Z,101443
2017-11-15T06:52:07.647Z,101449
2017-11-15T06:54:37.067Z,101449
2017-11-15T06:57:05.656Z,101452
2017-11-15T06:59:34.020Z,101445
2017-11-15T07:02:04.069Z,101456
2017-11-15T07:04:33.713Z,101457
2017-11-15T07:07:03.564Z,101460
2017-11-15T07:09:33.496Z,101464
2017-11-15T07:12:02.590Z,101465
2017-11-15T07:14:31.388Z,101460
2017-11-15T07:16:59.673Z,101456
2017-11-15T07:19:30.373Z,101458
2017-11-15T07:21:58.878Z,101454
2017-11-15T07:24:31.590Z,101464
2017-11-15T07:27:00.653Z,101467
2017-11-15T07:29:29.769Z,101469
2017-11-15T07:32:00.389Z,101461
2017-11-15T07:34:33.398Z,101473
2017-11-15T07:37:03.024Z,101457
2017-11-15T07:39:34.624Z,101469
2017-11-15T07:42:03.225Z,101474
2017-11-15T07:44:34.725Z,101488
2017-11-15T07:47:03.893Z,101470
2017-11-15T07:49:33.817Z,101470
2017-11-15T07:52:03.239Z,101466
2017-11-15T07:54:33.494Z,101466
2017-11-15T07:57:02.346Z,101471
2017-11-15T07:59:31.275Z,101480
2017-11-15T08:02:00.737Z,101477
2017-11-15T08:04:30.070Z,101480
2017-11-15T08:06:59.220Z,101478
2017-11-15T08:09:28.534Z,101477
2017-11-15T08:11:58.307Z,101479
2017-11-15T08:14:27.287Z,101469
2017-11-15T08:16:55.598Z,101480
2017-11-15T08:19:25.516Z,101485
2017-11-15T08:21:55.191Z,101493
2017-11-15T08:24:24.520Z,101493
2017-11-15T08:26:53.076Z,101493
2017-11-15T08:29:25.831Z,101491
2017-11-15T08:31:55.694Z,101494
2017-11-15T08:34:27.026Z,101494
2017-11-15T08:36:56.512Z,101494
2017-11-15T08:39:26.162Z,101485
2017-11-15T08:41:55.077Z,101491
2017-11-15T08:44:23.778Z,101487
2017-11-15T08:46:52.084Z,101495
2017-11-15T08:49:34.668Z,101504
2017-11-15T08:52:06.656Z,101500
2017-11-15T08:54:36.277Z,101489
2017-11-15T08:57:05.388Z,101482
2017-11-15T08:59:35.861Z,101466
2017-11-15T09:02:07.527Z,101474
2017-11-15T09:04:42.472Z,101498
2017-11-15T09:07:11.499Z,101497
2017-11-15T09:09:41.031Z,101489
2017-11-15T09:12:10.361Z,101501
2017-11-15T09:14:38.925Z,101506
2017-11-15T09:17:07.708Z,101508
2017-11-15T09:19:37.579Z,101504
2017-11-15T09:22:07.389Z,101508
2017-11-15T09:24:36.645Z,101510
2017-11-15T09:27:04.950Z,101508
2017-11-15T09:29:33.408Z,101504
2017-11-15T09:32:01.687Z,101504
2017-11-15T09:34:30.165Z,101494
2017-11-15T09:36:58.764Z,101507
2017-11-15T09:39:27.419Z,101496
2017-11-15T09:41:55.852Z,101494
2017-11-15T09:44:26.881Z,101493
2017-11-15T09:46:56.017Z,101495
2017-11-15T09:49:24.570Z,101490
2017-11-15T09:51:55.136Z,101491
2017-11-15T09:54:23.662Z,101493
2017-11-15T09:56:52.660Z,101482
2017-11-15T09:59:21.369Z,101496
2017-11-15T10:01:50.140Z,101491
2017-11-15T10:04:18.796Z,101493
2017-11-15T10:06:47.432Z,101486
2017-11-15T10:09:17.648Z,101496
2017-11-15T10:11:46.351Z,101480
2017-11-15T10:14:15.416Z,101477
2017-11-15T10:16:44.700Z,101478
2017-11-15T10:19:13.873Z,101472
2017-11-15T10:21:42.606Z,101467
2017-11-15T10:24:11.881Z,101456
2017-11-15T10:26:40.519Z,101450
2017-11-15T10:29:10.494Z,101446
2017-11-15T10:31:39.579Z,101447
2017-11-15T10:34:08.831Z,101448
2017-11-15T10:36:39.674Z,101452
2017-11-15T10:39:09.206Z,101451
2017-11-15T10:41:38.566Z,101440
2017-11-15T10:44:08.589Z,101451
2017-11-15T10:46:37.371Z,101444
2017-11-15T10:49:05.644Z,101450
2017-11-15T10:51:34.881Z,101456
2017-11-15T10:54:03.806Z,101460
2017-11-15T10:56:32.791Z,101460
2017-11-15T10:59:01.189Z,101466
2017-11-15T11:01:29.591Z,101465
2017-11-15T11:03:59.152Z,101462
2017-11-15T11:06:29.526Z,101458
2017-11-15T11:08:59.170Z,101464
2017-11-15T11:11:28.048Z,101464
2017-11-15T11:13:57.653Z,101464
2017-11-15T11:16:26.004Z,101457
2017-11-15T11:18:54.441Z,101452
2017-11-15T11:21:23.550Z,101453
2017-11-15T11:23:53.696Z,101453
2017-11-15T11:26:22.543Z,101459
2017-11-15T11:28:52.002Z,101462
2017-11-15T11:31:21.414Z,101470
2017-11-15T11:33:49.995Z,101457
2017-11-15T11:36:19.329Z,101462
2017-11-15T11:38:49.367Z,101458
2017-11-15T11:41:19.275Z,101463
2017-11-15T11:43:48.989Z,101454
2017-11-15T11:46:19.684Z,101454
2017-11-15T11:48:49.458Z,101449
2017-11-15T11:51:17.747Z,101455
2017-11-15T11:53:46.231Z,101452
2017-11-15T11:56:14.867Z,101454
2017-11-15T11:58:47.496Z,101448
2017-11-15T12:01:16.516Z,101450
2017-11-15T12:03:46.385Z,101444
2017-11-15T12:06:16.037Z,101442
2017-11-15T12:08:44.351Z,101442
2017-11-15T12:11:13.148Z,101444
2017-11-15T12:13:43.699Z,101447
2017-11-15T12:16:14.236Z,101450
2017-11-15T12:18:43.320Z,101438
2017-11-15T12:21:11.797Z,101443
2017-11-15T12:23:41.606Z,101437
2017-11-15T12:26:10.815Z,101430
2017-11-15T12:28:40.121Z,101431
2017-11-15T12:31:09.830Z,101432
2017-11-15T12:33:38.345Z,101429
2017-11-15T12:36:06.790Z,101431
2017-11-15T12:38:35.387Z,101426
2017-11-15T12:41:04.731Z,101421
2017-11-15T12:43:34.208Z,101423
2017-11-15T12:46:02.973Z,101421
2017-11-15T12:48:31.760Z,101420
2017-11-15T12:51:00.289Z,101420
2017-11-15T12:53:29.492Z,101415
2017-11-15T12:55:57.877Z,101414
2017-11-15T12:58:26.406Z,101415
2017-11-15T13:00:55.065Z,101410
2017-11-15T13:03:24.512Z,101408
2017-11-15T13:05:53.139Z,101410
2017-11-15T13:08:22.061Z,101411
2017-11-15T13:10:51.643Z,101402
2017-11-15T13:13:23.349Z,101399
2017-11-15T13:15:56.134Z,101401
2017-11-15T13:18:33.702Z,101403
2017-11-15T13:21:03.425Z,101401
2017-11-15T13:23:32.256Z,101411
2017-11-15T13:26:00.837Z,101409
2017-11-15T13:28:30.335Z,101407
2017-11-15T13:30:59.404Z,101401
2017-11-15T13:33:28.914Z,101399
2017-11-15T13:35:58.874Z,101410
2017-11-15T13:38:29.427Z,101409
2017-11-15T13:41:08.304Z,101406
2017-11-15T13:43:37.857Z,101418
2017-11-15T13:46:10.364Z,101414
2017-11-15T13:48:40.583Z,101417
2017-11-15T13:51:11.098Z,101416
2017-11-15T13:53:40.164Z,101417
2017-11-15T13:56:09.022Z,101415
2017-11-15T13:58:38.752Z,101413
2017-11-15T14:01:07.060Z,101407
2017-11-15T14:03:39.717Z,101410
2017-11-15T14:06:08.579Z,101403
2017-11-15T14:08:38.913Z,101411
2017-11-15T14:11:11.220Z,101403
2017-11-15T14:13:41.939Z,101409
2017-11-15T14:16:10.481Z,101405
2017-11-15T14:18:40.113Z,101409
2017-11-15T14:21:09.682Z,101403
2017-11-15T14:23:39.861Z,101411
2017-11-15T14:26:09.186Z,101410
2017-11-15T14:28:38.377Z,101413
2017-11-15T14:31:08.962Z,101421
2017-11-15T14:33:37.261Z,101415
2017-11-15T14:36:05.945Z,101419
2017-11-15T14:38:34.679Z,101417
2017-11-15T14:41:03.783Z,101403
2017-11-15T14:43:32.407Z,101409
2017-11-15T14:46:00.965Z,101404
2017-11-15T14:48:29.783Z,101410
2017-11-15T14:50:59.027Z,101413
2017-11-15T14:53:30.132Z,101414
2017-11-15T14:55:58.741Z,101415
2017-11-15T14:58:27.084Z,101420
2017-11-15T15:00:55.714Z,101419
2017-11-15T15:03:25.713Z,101423
2017-11-15T15:05:54.867Z,101429
2017-11-15T15:08:25.092Z,101422
2017-11-15T15:10:53.465Z,101422
2017-11-15T15:13:22.964Z,101425
2017-11-15T15:15:51.700Z,101434
2017-11-15T15:18:20.398Z,101432
2017-11-15T15:20:50.920Z,101432
2017-11-15T15:23:20.641Z,101435
2017-11-15T15:25:48.925Z,101427
2017-11-15T15:28:18.173Z,101428
2017-11-15T15:30:46.878Z,101429
2017-11-15T15:33:18.740Z,101427
2017-11-15T15:35:47.076Z,101425
2017-11-15T15:38:16.529Z,101426
2017-11-15T15:40:45.881Z,101422
2017-11-15T15:43:14.513Z,101436
2017-11-15T15:45:42.833Z,101432
2017-11-15T15:48:11.495Z,101430
2017-11-15T15:50:40.923Z,101435
2017-11-15T15:53:10.354Z,101430
2017-11-15T15:55:38.711Z,101426
2017-11-15T15:58:07.026Z,101438
2017-11-15T16:00:35.823Z,101438
2017-11-15T16:03:05.087Z,101441
2017-11-15T16:05:34.092Z,101440
2017-11-15T16:08:02.417Z,101449
2017-11-15T16:10:30.855Z,101441
2017-11-15T16:12:59.279Z,101445
2017-11-15T16:15:27.738Z,101454
2017-11-15T16:17:56.806Z,101443
2017-11-15T16:20:25.537Z,101451
2017-11-15T16:22:54.228Z,101451
2017-11-15T16:25:22.735Z,101445
2017-11-15T16:27:51.211Z,101450
2017-11-15T16:30:19.677Z,101450
2017-11-15T16:32:48.242Z,101443
2017-11-15T16:35:17.603Z,101451
2017-11-15T16:37:47.027Z,101448
2017-11-15T16:40:16.162Z,101442
2017-11-15T16:42:45.306Z,101443
2017-11-15T16:45:15.326Z,101440
2017-11-15T16:47:45.384Z,101435
2017-11-15T16:50:27.162Z,101446
2017-11-15T16:52:58.391Z,101440
2017-11-15T16:55:28.887Z,101439
2017-11-15T16:57:57.496Z,101438
2017-11-15T17:00:27.096Z,101433
2017-11-15T17:02:56.788Z,101447
2017-11-15T17:05:26.664Z,101443
2017-11-15T17:07:55.466Z,101445
2017-11-15T17:10:25.278Z,101454
2017-11-15T17:12:53.853Z,101454
2017-11-15T17:15:22.337Z,101450
2017-11-15T17:17:51.327Z,101449
2017-11-15T17:20:20.437Z,101439
2017-11-15T17:22:50.047Z,101454
2017-11-15T17:25:22.472Z,101450
2017-11-15T17:27:53.094Z,101456
2017-11-15T17:30:23.472Z,101456
2017-11-15T17:33:03.667Z,101450
2017-11-15T17:35:32.069Z,101458
2017-11-15T17:38:01.166Z,101469
2017-11-15T17:40:29.541Z,101466
2017-11-15T17:42:58.074Z,101470
2017-11-15T17:45:26.401Z,101473
2017-11-15T17:47:54.709Z,101472
2017-11-15T17:50:23.061Z,101464
2017-11-15T17:52:51.343Z,101464
2017-11-15T17:55:19.635Z,101462
2017-11-15T17:57:48.035Z,101466
2017-11-15T18:00:16.322Z,101474
2017-11-15T18:02:44.600Z,101475
2017-11-15T18:05:12.902Z,101470
2017-11-15T18:07:42.045Z,101466
2017-11-15T18:10:10.354Z,101471
2017-11-15T18:12:39.508Z,101468
2017-11-15T18:15:07.791Z,101476
2017-11-15T18:17:36.061Z,101475
2017-11-15T18:20:04.656Z,101473
2017-11-15T18:22:32.962Z,101468
2017-11-15T18:25:01.300Z,101468
2017-11-15T18:27:29.636Z,101466
2017-11-15T18:29:57.900Z,101458
2017-11-15T18:32:26.203Z,101455
2017-11-15T18:34:54.580Z,101463
2017-11-15T18:37:22.905Z,101467
2017-11-15T18:39:51.188Z,101464
2017-11-15T18:42:19.498Z,101476
2017-11-15T18:44:48.611Z,101467
2017-11-15T18:47:16.953Z,101464
2017-11-15T18:49:45.316Z,101472
2017-11-15T18:52:13.633Z,101474
2017-11-15T18:54:42.091Z,101480
2017-11-15T18:57:11.391Z,101479
2017-11-15T18:59:39.752Z,101481
2017-11-15T19:02:08.161Z,101481
2017-11-15T19:04:36.711Z,101486
2017-11-15T19:07:05.148Z,101485
2017-11-15T19:09:33.452Z,101498
2017-11-15T19:12:01.790Z,101497
2017-11-15T19:14:30.099Z,101490
2017-11-15T19:16:58.456Z,101492
2017-11-15T19:19:26.766Z,101494
2017-11-15T19:21:55.140Z,101500
2017-11-15T19:24:23.497Z,101506
2017-11-15T19:26:52.609Z,101517
2017-11-15T19:29:20.937Z,101503
2017-11-15T19:31:49.370Z,101501
2017-11-15T19:34:17.740Z,101502
2017-11-15T19:36:46.097Z,101494
2017-11-15T19:39:14.657Z,101493
2017-11-15T19:41:43.795Z,101502
2017-11-15T19:44:12.366Z,101498
2017-11-15T19:46:40.697Z,101498
2017-11-15T19:49:09.888Z,101506
2017-11-15T19:51:39.065Z,101499
2017-11-15T19:54:07.554Z,101502
2017-11-15T19:56:36.022Z,101507
2017-11-15T19:59:04.363Z,101501
2017-11-15T20:01:32.636Z,101500
2017-11-15T20:04:01.155Z,101508
2017-11-15T20:06:33.320Z,101505
2017-11-15T20:09:01.669Z,101505
2017-11-15T20:11:30.052Z,101500
2017-11-15T20:14:00.465Z,101507
2017-11-15T20:16:28.907Z,101499
2017-11-15T20:18:57.242Z,101506
2017-11-15T20:21:25.956Z,101506
2017-11-15T20:23:54.895Z,101504
2017-11-15T20:26:24.962Z,101505
2017-11-15T20:28:55.072Z,101506
2017-11-15T20:31:23.416Z,101512
2017-11-15T20:33:54.194Z,101518
2017-11-15T20:36:22.812Z,101511
2017-11-15T20:38:53.142Z,101510
2017-11-15T20:41:25.564Z,101503
2017-11-15T20:43:54.375Z,101503
2017-11-15T20:46:22.755Z,101506
2017-11-15T20:48:51.040Z,101507
2017-11-15T20:51:20.904Z,101499
2017-11-15T20:53:49.255Z,101503
2017-11-15T20:56:17.551Z,101501
2017-11-15T20:58:46.354Z,101499
2017-11-15T21:01:14.807Z,101506
2017-11-15T21:03:43.306Z,101502
2017-11-15T21:06:11.624Z,101503
2017-11-15T21:08:40.730Z,101513
2017-11-15T21:11:10.696Z,101499
2017-11-15T21:13:39.125Z,101499
2017-11-15T21:16:09.150Z,101504
2017-11-15T21:18:38.313Z,101510
2017-11-15T21:21:06.917Z,101511
2017-11-15T21:23:35.259Z,101512
2017-11-15T21:26:03.711Z,101501
2017-11-15T21:28:32.615Z,101507
2017-11-15T21:31:02.043Z,101502
2017-11-15T21:33:31.758Z,101504
2017-11-15T21:36:00.518Z,101503
2017-11-15T21:38:28.967Z,101497
2017-11-15T21:41:00.773Z,101500
2017-11-15T21:43:29.180Z,101506
2017-11-15T21:45:57.707Z,101509
2017-11-15T21:48:26.637Z,101513
2017-11-15T21:50:55.082Z,101508
2017-11-15T21:53:29.179Z,101516
2017-11-15T21:55:59.014Z,101509
2017-11-15T21:58:27.338Z,101513
2017-11-15T22:00:57.244Z,101509
2017-11-15T22:03:26.025Z,101511
2017-11-15T22:05:54.564Z,101506
2017-11-15T22:08:23.455Z,101511
2017-11-15T22:10:55.143Z,101508
2017-11-15T22:13:26.516Z,101516
2017-11-15T22:15:55.930Z,101518
2017-11-15T22:18:26.672Z,101523
2017-11-15T22:20:55.234Z,101526
2017-11-15T22:23:24.572Z,101521
2017-11-15T22:25:54.325Z,101529
2017-11-15T22:28:22.816Z,101522
2017-11-15T22:30:52.344Z,101524
2017-11-15T22:33:24.258Z,101519
2017-11-15T22:35:55.243Z,101529
2017-11-15T22:38:25.398Z,101524
2017-11-15T22:40:57.265Z,101529
2017-11-15T22:43:27.672Z,101524
2017-11-15T22:45:56.538Z,101518
2017-11-15T22:48:27.046Z,101521
2017-11-15T22:50:57.536Z,101520
2017-11-15T22:53:33.379Z,101520
2017-11-15T22:56:02.602Z,101519
2017-11-15T22:58:31.369Z,101514
2017-11-15T23:01:01.181Z,101521
2017-11-15T23:03:34.443Z,101520
2017-11-15T23:06:04.521Z,101519
2017-11-15T23:08:33.281Z,101522
2017-11-15T23:11:02.812Z,101519
2017-11-15T23:13:32.333Z,101517
2017-11-15T23:16:01.679Z,101518
2017-11-15T23:18:30.611Z,101516
2017-11-15T23:20:58.981Z,101519
2017-11-15T23:23:27.382Z,101513
2017-11-15T23:25:56.785Z,101523
2017-11-15T23:28:26.265Z,101508
2017-11-15T23:30:55.294Z,101506
2017-11-15T23:33:25.600Z,101509
2017-11-15T23:35:54.416Z,101504
2017-11-15T23:38:22.755Z,101503
2017-11-15T23:40:51.334Z,101499
2017-11-15T23:43:21.327Z,101503
2017-11-15T23:45:49.750Z,101500
2017-11-15T23:48:18.634Z,101493
2017-11-15T23:50:47.901Z,101496
2017-11-15T23:53:23.165Z,101494
2017-11-15T23:55:51.510Z,101497
2017-11-15T23:58:20.004Z,101492
